Terminal Aerodrome Forecast
Issued by NWS Blacksburg, VA

Home | Current Version | Previous Version | Text Only | Print | Product List | Glossary On
Versions: 1 2 3 4 5 6 7 8 9 10 11 12 13 14 15 16 17 18 19 20 21 22 23 24 25 26 27 28 29 30
000
FTUS41 KRNK 220717 AAA
TAFDAN
TAF AMD
KDAN 220717Z 2207/2306 VRB03KT 6SM -RA BR SCT025 OVC060
      TEMPO 2207/2209 3SM RA BR OVC025
     FM220900 00000KT 6SM BR OVC030
      TEMPO 2209/2211 2SM BR SCT030
     FM221500 32009G17KT P6SM SCT250
     FM222300 34006KT P6SM SKC=

USA.gov is the U.S. government's official web portal to all federal, state and local government web resources and services.